Time;durP1;ratioP1;P1;durP2;ratioP2;P2;SDS_P1;SDS_P2;PMS_P1;PMS_P2;Temp;Humidity;BMP_temperature;BMP_pressure;BME280_temperature;BME280_humidity;BME280_pressure;Samples;Min_cycle;Max_cycle;Signal;HPM_P1;HPM_P2
2024/03/02 00:04:00;;;;;;;;;;;;;;;20.79;38.00;94598.50;10515918;28;1944;-68
2024/03/02 00:09:00;;;;;;;;;;;;;;;20.78;37.94;94587.19;10516340;28;2095;-67
2024/03/02 00:14:01;;;;;;;;;;;;;;;20.76;38.06;94594.59;10519647;28;2171;-67
2024/03/02 00:19:02;;;;;;;;;;;;;;;20.75;37.78;94589.66;10509219;28;2347;-67
2024/03/02 00:24:06;;;;;;;;;;;;;;;20.73;37.94;94584.66;10516346;28;2060;-68
2024/03/02 00:29:06;;;;;;;;;;;;;;;20.73;37.80;94584.66;10508100;28;1978;-67
2024/03/02 00:34:07;;;;;;;;;;;;;;;20.71;38.12;94575.53;10508454;28;1966;-67
2024/03/02 00:39:07;;;;;;;;;;;;;;;20.70;37.93;94580.00;10502228;28;1917;-67
2024/03/02 00:44:08;;;;;;;;;;;;;;;20.68;38.00;94563.75;10500704;28;2347;-67
2024/03/02 00:49:14;;;;;;;;;;;;;;;20.67;38.00;94570.06;10505917;28;1966;-67
2024/03/02 00:54:15;;;;;;;;;;;;;;;20.66;37.75;94560.63;10503319;28;2046;-68
2024/03/02 00:59:15;;;;;;;;;;;;;;;20.65;38.03;94558.31;10503303;28;2430;-68
2024/03/02 01:04:15;;;;;;;;;;;;;;;20.64;37.88;94564.66;10507517;28;1878;-68
2024/03/02 01:09:17;;;;;;;;;;;;;;;20.63;38.00;94568.38;10509635;28;2190;-68
2024/03/02 01:14:17;;;;;;;;;;;;;;;20.62;37.91;94572.06;10504815;28;2318;-68
2024/03/02 01:19:18;;;;;;;;;;;;;;;20.60;37.94;94572.38;10513203;28;2164;-68
2024/03/02 01:24:18;;;;;;;;;;;;;;;20.59;37.86;94568.19;10516639;28;2012;-68
2024/03/02 01:29:19;;;;;;;;;;;;;;;20.58;37.88;94571.91;10514878;28;1893;-68
2024/03/02 01:34:20;;;;;;;;;;;;;;;20.58;37.88;94571.13;10509704;28;1975;-67
2024/03/02 01:39:21;;;;;;;;;;;;;;;20.56;37.91;94562.75;10516527;28;1910;-68
2024/03/02 01:44:21;;;;;;;;;;;;;;;20.55;37.61;94572.50;10507181;28;2370;-67
2024/03/02 01:49:21;;;;;;;;;;;;;;;20.54;37.96;94568.31;10515221;28;2047;-67
2024/03/02 01:54:21;;;;;;;;;;;;;;;20.53;37.81;94569.38;10514515;28;2039;-66
2024/03/02 01:59:22;;;;;;;;;;;;;;;20.51;37.93;94561.00;10515874;28;2061;-66
2024/03/02 02:04:27;;;;;;;;;;;;;;;20.51;37.85;94554.97;10519077;28;2033;-68
2024/03/02 02:09:27;;;;;;;;;;;;;;;20.49;37.87;94541.31;10499641;28;1987;-68
2024/03/02 02:14:28;;;;;;;;;;;;;;;20.48;37.85;94539.78;10510484;28;2154;-67
2024/03/02 02:19:28;;;;;;;;;;;;;;;20.47;37.83;94532.94;10513748;28;2103;-66
2024/03/02 02:24:29;;;;;;;;;;;;;;;20.46;37.81;94532.19;10506905;28;2585;-66
2024/03/02 02:29:29;;;;;;;;;;;;;;;20.45;37.80;94535.88;10508216;28;1900;-68
2024/03/02 02:34:29;;;;;;;;;;;;;;;20.43;37.69;94527.53;10506773;28;1994;-67
2024/03/02 02:39:29;;;;;;;;;;;;;;;20.42;37.83;94533.88;10503131;28;2136;-69
2024/03/02 02:44:30;;;;;;;;;;;;;;;20.40;37.62;94532.63;10507254;28;2045;-67
2024/03/02 02:49:31;;;;;;;;;;;;;;;20.39;37.74;94533.69;10504987;28;2186;-67
2024/03/02 02:54:31;;;;;;;;;;;;;;;20.38;37.63;94530.25;10504243;28;1933;-68
2024/03/02 02:59:31;;;;;;;;;;;;;;;20.38;37.42;94540.78;10511734;28;2057;-68
2024/03/02 03:04:31;;;;;;;;;;;;;;;20.35;37.80;94536.16;10508612;28;1971;-69
2024/03/02 03:09:32;;;;;;;;;;;;;;;20.35;37.66;94546.66;10510099;28;2473;-68
2024/03/02 03:14:32;;;;;;;;;;;;;;;20.33;37.56;94548.81;10505355;28;2152;-69
2024/03/02 03:19:32;;;;;;;;;;;;;;;20.33;37.71;94548.81;10511301;28;2037;-67
2024/03/02 03:24:33;;;;;;;;;;;;;;;20.32;37.44;94546.50;10514014;28;2193;-68
2024/03/02 03:29:33;;;;;;;;;;;;;;;20.31;37.51;94550.97;10514808;28;1987;-68
2024/03/02 03:34:33;;;;;;;;;;;;;;;20.29;37.24;94545.25;10514916;28;2128;-68
2024/03/02 03:39:34;;;;;;;;;;;;;;;20.29;37.53;94542.59;10506367;28;2002;-68
2024/03/02 03:44:34;;;;;;;;;;;;;;;20.27;37.19;94542.13;10504984;28;2001;-68
2024/03/02 03:49:34;;;;;;;;;;;;;;;20.25;37.39;94546.91;10506127;28;1998;-67
2024/03/02 03:54:37;;;;;;;;;;;;;;;20.25;37.39;94539.03;10516159;28;2101;-68
2024/03/02 03:59:37;;;;;;;;;;;;;;;20.24;37.20;94545.34;10501646;28;2013;-68
2024/03/02 04:04:37;;;;;;;;;;;;;;;20.22;37.27;94542.25;10503370;28;2046;-68
2024/03/02 04:09:37;;;;;;;;;;;;;;;20.21;37.22;94544.13;10501183;28;2804;-68
2024/03/02 04:14:38;;;;;;;;;;;;;;;20.21;37.23;94548.59;10506259;28;2184;-67
2024/03/02 04:19:38;;;;;;;;;;;;;;;20.19;37.44;94546.28;10509062;28;2049;-68
2024/03/02 04:24:38;;;;;;;;;;;;;;;20.19;37.43;94558.63;10502355;28;2018;-67
2024/03/02 04:29:38;;;;;;;;;;;;;;;20.17;37.13;94563.41;10508524;28;2105;-67
2024/03/02 04:34:39;;;;;;;;;;;;;;;20.17;37.32;94571.28;10503243;28;2007;-69
2024/03/02 04:39:39;;;;;;;;;;;;;;;20.16;37.24;94569.72;10502995;28;2108;-67
2024/03/02 04:44:39;;;;;;;;;;;;;;;20.15;37.33;94573.44;10494656;28;2049;-67
2024/03/02 04:49:39;;;;;;;;;;;;;;;20.14;37.29;94577.13;10501648;28;2020;-67
2024/03/02 04:59:59;;;;;;;;;;;;;;;20.10;37.17;94592.75;10514896;28;2247;-67
2024/03/02 05:04:59;;;;;;;;;;;;;;;20.10;37.08;94597.22;10503505;28;2062;-67
2024/03/02 05:09:59;;;;;;;;;;;;;;;20.10;37.19;94597.22;10502268;28;1972;-67
2024/03/02 05:14:59;;;;;;;;;;;;;;;20.13;37.21;94599.28;10504118;28;1971;-67
2024/03/02 05:20:00;;;;;;;;;;;;;;;20.18;36.75;94601.78;10501583;28;1986;-67
2024/03/02 05:25:00;;;;;;;;;;;;;;;20.26;36.88;94598.47;10502639;28;2002;-67
2024/03/02 05:30:01;;;;;;;;;;;;;;;20.34;36.73;94597.72;10494675;28;2231;-67
2024/03/02 05:35:02;;;;;;;;;;;;;;;20.41;36.68;94597.31;10507496;28;2116;-68
2024/03/02 05:40:03;;;;;;;;;;;;;;;20.48;36.40;94603.75;10500830;28;2027;-66
2024/03/02 05:45:03;;;;;;;;;;;;;;;20.53;36.12;94608.88;10505919;28;1974;-66
2024/03/02 05:50:07;;;;;;;;;;;;;;;20.59;36.31;94605.03;10526028;28;2578;-66
2024/03/02 05:55:07;;;;;;;;;;;;;;;20.62;36.20;94604.44;10520094;28;1927;-67
2024/03/02 06:00:07;;;;;;;;;;;;;;;20.65;36.03;94603.81;10515673;28;1879;-67
2024/03/02 06:05:08;;;;;;;;;;;;;;;20.69;36.01;94602.16;10522298;28;2059;-68
2024/03/02 06:10:09;;;;;;;;;;;;;;;20.73;36.06;94611.00;10511899;28;1983;-67
2024/03/02 06:15:09;;;;;;;;;;;;;;;20.75;35.85;94613.34;10505818;28;2073;-67
2024/03/02 06:20:10;;;;;;;;;;;;;;;20.79;35.61;94615.06;10507914;28;1905;-66
2024/03/02 06:25:10;;;;;;;;;;;;;;;20.83;35.69;94613.41;10502681;28;2089;-66
2024/03/02 06:30:11;;;;;;;;;;;;;;;20.86;35.42;94604.88;10504228;28;3058;-66
2024/03/02 06:35:12;;;;;;;;;;;;;;;20.89;35.60;94606.16;10506215;28;2111;-67
2024/03/02 06:40:12;;;;;;;;;;;;;;;20.91;35.38;94601.34;10519363;28;1957;-66
2024/03/02 06:45:12;;;;;;;;;;;;;;;20.94;35.21;94606.00;10503895;28;2022;-67
2024/03/02 06:50:13;;;;;;;;;;;;;;;20.95;35.18;94607.56;10501683;28;2120;-66
2024/03/02 06:55:13;;;;;;;;;;;;;;;20.98;35.44;94617.47;10504810;28;2001;-67
2024/03/02 07:00:13;;;;;;;;;;;;;;;20.99;35.07;94604.03;10508490;28;1932;-66
2024/03/02 07:05:14;;;;;;;;;;;;;;;21.02;35.22;94607.91;10508252;28;2053;-65
2024/03/02 07:10:14;;;;;;;;;;;;;;;21.03;34.96;94604.22;10505529;28;2129;-67
2024/03/02 07:20:44;;;;;;;;;;;;;;;21.08;34.92;94611.22;10505395;28;3040;-68
2024/03/02 07:25:44;;;;;;;;;;;;;;;21.11;34.84;94615.88;10508955;28;2093;-67
2024/03/02 07:30:45;;;;;;;;;;;;;;;21.13;35.24;94608.44;10513471;28;1956;-69
2024/03/02 07:35:45;;;;;;;;;;;;;;;21.14;34.91;94617.91;10502494;28;2182;-68
2024/03/02 07:40:45;;;;;;;;;;;;;;;21.16;34.76;94613.13;10511236;28;2063;-67
2024/03/02 07:45:46;;;;;;;;;;;;;;;21.18;34.94;94616.22;10499440;28;2101;-69
2024/03/02 07:50:46;;;;;;;;;;;;;;;21.17;34.97;94618.06;10497609;28;1967;-65
2024/03/02 07:55:46;;;;;;;;;;;;;;;21.22;34.44;94627.72;10504126;28;2090;-65
2024/03/02 08:00:47;;;;;;;;;;;;;;;21.24;34.05;94620.28;10505791;28;2845;-66
2024/03/02 08:05:47;;;;;;;;;;;;;;;21.30;34.02;94624.31;10511048;28;1905;-64
2024/03/02 08:10:48;;;;;;;;;;;;;;;21.29;34.80;94638.59;10513282;28;1885;-67
2024/03/02 08:15:49;;;;;;;;;;;;;;;21.33;34.30;94631.63;10513540;28;1965;-65
2024/03/02 08:20:49;;;;;;;;;;;;;;;21.35;34.64;94626.84;10502718;28;2180;-67
2024/03/02 08:25:49;;;;;;;;;;;;;;;21.37;34.65;94635.22;10507881;28;1944;-66
2024/03/02 08:30:49;;;;;;;;;;;;;;;21.41;34.87;94636.16;10499184;28;2120;-70
2024/03/02 08:35:50;;;;;;;;;;;;;;;21.37;35.93;94635.97;10502976;28;2070;-68
2024/03/02 08:40:50;;;;;;;;;;;;;;;21.40;35.70;94629.31;10501445;28;1887;-67
2024/03/02 08:45:50;;;;;;;;;;;;;;;21.43;35.65;94647.19;10495876;28;2117;-68
2024/03/02 08:50:51;;;;;;;;;;;;;;;21.45;35.64;94642.38;10492813;28;1986;-70
2024/03/02 08:55:51;;;;;;;;;;;;;;;21.46;35.49;94641.28;10498119;28;2385;-67
2024/03/02 09:00:51;;;;;;;;;;;;;;;21.47;36.16;94645.50;10509890;28;1962;-70
2024/03/02 09:05:51;;;;;;;;;;;;;;;21.48;36.18;94647.81;10504486;28;2070;-69
2024/03/02 09:10:52;;;;;;;;;;;;;;;21.49;36.19;94645.97;10504955;28;2124;-68
2024/03/02 09:15:52;;;;;;;;;;;;;;;21.47;35.85;94656.03;10493778;28;2000;-68
2024/03/02 09:20:52;;;;;;;;;;;;;;;21.46;36.44;94649.97;10511355;28;2012;-68
2024/03/02 09:25:53;;;;;;;;;;;;;;;21.47;36.40;94650.75;10509392;28;2066;-69
2024/03/02 09:30:53;;;;;;;;;;;;;;;21.45;36.91;94647.66;10512234;28;2033;-69
2024/03/02 09:35:53;;;;;;;;;;;;;;;21.44;36.89;94654.00;10509127;28;2096;-69
2024/03/02 09:40:53;;;;;;;;;;;;;;;21.44;37.03;94649.50;10510550;28;2287;-68
2024/03/02 09:45:54;;;;;;;;;;;;;;;21.42;37.04;94632.44;10503623;28;2115;-68
2024/03/02 09:50:54;;;;;;;;;;;;;;;21.42;37.17;94638.50;10510613;28;2081;-68
2024/03/02 09:55:54;;;;;;;;;;;;;;;21.41;36.87;94638.81;10514353;28;2135;-68
2024/03/02 10:00:55;;;;;;;;;;;;;;;21.40;36.74;94639.88;10518153;28;2172;-69
2024/03/02 10:05:55;;;;;;;;;;;;;;;21.37;37.09;94629.94;10513573;28;1986;-68
2024/03/02 10:10:57;;;;;;;;;;;;;;;21.38;37.13;94627.00;10506013;28;2113;-67
2024/03/02 10:15:59;;;;;;;;;;;;;;;21.38;37.08;94623.56;10508020;28;1955;-66
2024/03/02 10:21:12;;;;;;;;;;;;;;;21.37;37.50;94629.94;10513354;28;2334;-68
2024/03/02 10:26:18;;;;;;;;;;;;;;;21.35;37.41;94621.56;10511383;28;1960;-71
2024/03/02 10:31:19;;;;;;;;;;;;;;;21.35;37.46;94621.56;10507536;28;1986;-70
2024/03/02 10:36:19;;;;;;;;;;;;;;;21.33;37.63;94619.22;10494255;28;1967;-70
2024/03/02 10:41:19;;;;;;;;;;;;;;;21.33;37.89;94605.28;10514309;28;2117;-67
2024/03/02 10:46:19;;;;;;;;;;;;;;;21.30;38.37;94595.34;10511142;28;1861;-66
2024/03/02 10:51:20;;;;;;;;;;;;;;;21.30;38.27;94593.47;10512467;28;2109;-73
2024/03/02 10:56:38;;;;;;;;;;;;;;;21.31;38.66;94583.72;10504324;28;2111;-67
2024/03/02 11:01:39;;;;;;;;;;;;;;;21.31;38.45;94573.94;10508252;28;2297;-67
2024/03/02 11:06:41;;;;;;;;;;;;;;;21.30;38.57;94572.41;10503497;28;1962;-64
2024/03/02 11:11:42;;;;;;;;;;;;;;;21.33;38.91;94568.38;10514754;28;2104;-74
2024/03/02 11:16:42;;;;;;;;;;;;;;;21.32;39.00;94558.91;10513295;28;2198;-74
2024/03/02 11:21:43;;;;;;;;;;;;;;;21.32;38.92;94551.00;10515121;28;1919;-74
2024/03/02 11:26:43;;;;;;;;;;;;;;;21.31;38.72;94542.31;10500798;28;2017;-73
2024/03/02 11:32:00;;;;;;;;;;;;;;;21.32;38.97;94543.09;10506284;28;2088;-68
2024/03/02 11:37:03;;;;;;;;;;;;;;;21.33;39.05;94536.75;10509784;28;2105;-63
2024/03/02 11:42:03;;;;;;;;;;;;;;;21.33;39.32;94515.66;10503387;28;2030;-75
2024/03/02 11:47:07;;;;;;;;;;;;;;;21.32;38.40;94514.88;10499034;28;2373;-70
2024/03/02 11:52:09;;;;;;;;;;;;;;;21.20;35.83;94503.38;10499211;28;2112;-67
2024/03/02 11:57:09;;;;;;;;;;;;;;;20.99;35.48;94503.91;10507988;28;2191;-63
2024/03/02 12:02:14;;;;;;;;;;;;;;;20.89;35.46;94496.28;10504605;28;2049;-69
2024/03/02 12:07:23;;;;;;;;;;;;;;;20.80;35.47;94489.44;10501272;28;2045;-68
2024/03/02 12:12:23;;;;;;;;;;;;;;;20.70;35.62;94485.22;10506446;28;2158;-67
2024/03/02 12:17:23;;;;;;;;;;;;;;;20.72;35.71;94477.78;10503832;28;1972;-68
2024/03/02 12:22:24;;;;;;;;;;;;;;;20.76;35.75;94472.69;10516352;28;1958;-65
2024/03/02 12:27:24;;;;;;;;;;;;;;;20.78;35.78;94473.16;10508412;28;2741;-66
2024/03/02 12:32:24;;;;;;;;;;;;;;;20.82;35.65;94459.06;10505144;28;1951;-67
2024/03/02 12:37:25;;;;;;;;;;;;;;;20.85;35.30;94450.59;10502803;28;2128;-67
2024/03/02 12:42:25;;;;;;;;;;;;;;;20.80;35.39;94431.50;10506133;28;2057;-67
2024/03/02 12:47:26;;;;;;;;;;;;;;;20.77;35.82;94438.13;10507341;28;2041;-69
2024/03/02 12:52:26;;;;;;;;;;;;;;;20.88;36.43;94431.50;10506627;28;1990;-67
2024/03/02 12:57:29;;;;;;;;;;;;;;;20.96;36.37;94420.22;10500216;28;2086;-69
2024/03/02 13:02:29;;;;;;;;;;;;;;;21.05;36.63;94417.63;10507263;28;2088;-68
2024/03/02 13:07:29;;;;;;;;;;;;;;;21.14;36.66;94407.09;10508918;28;1844;-68
2024/03/02 13:12:30;;;;;;;;;;;;;;;21.20;37.00;94404.03;10478880;28;2836;-65
2024/03/02 13:17:32;;;;;;;;;;;;;;;21.26;37.51;94392.25;10502874;28;2104;-65
2024/03/02 13:22:32;;;;;;;;;;;;;;;21.30;37.84;94395.81;10495823;28;2096;-67
2024/03/02 13:27:33;;;;;;;;;;;;;;;21.35;38.20;94386.97;10499502;28;2287;-70
2024/03/02 13:32:33;;;;;;;;;;;;;;;21.37;38.33;94382.91;10496279;28;1990;-67
2024/03/02 13:37:33;;;;;;;;;;;;;;;21.39;38.07;94385.25;10503622;28;2074;-69
2024/03/02 13:42:33;;;;;;;;;;;;;;;21.40;38.26;94366.50;10498108;28;1967;-69
2024/03/02 13:47:34;;;;;;;;;;;;;;;21.41;38.46;94367.28;10507252;28;2108;-68
2024/03/02 13:52:34;;;;;;;;;;;;;;;21.42;38.42;94364.31;10498856;28;2585;-67
2024/03/02 13:57:34;;;;;;;;;;;;;;;21.44;38.64;94366.63;10495264;28;2001;-68
2024/03/02 14:02:35;;;;;;;;;;;;;;;21.44;38.46;94361.38;10501754;28;1945;-68
2024/03/02 14:07:35;;;;;;;;;;;;;;;21.42;38.53;94353.00;10510554;28;2103;-68
2024/03/02 14:12:36;;;;;;;;;;;;;;;21.42;38.69;94353.78;10505493;28;2071;-67
2024/03/02 14:17:36;;;;;;;;;;;;;;;21.41;38.79;94352.22;10506900;28;2025;-69
2024/03/02 14:22:37;;;;;;;;;;;;;;;21.38;39.02;94341.53;10509155;28;2040;-68
2024/03/02 14:27:37;;;;;;;;;;;;;;;21.35;38.63;94348.19;10510175;28;1955;-66
2024/03/02 14:32:37;;;;;;;;;;;;;;;21.34;38.89;94340.59;10509531;28;2178;-67
2024/03/02 14:37:38;;;;;;;;;;;;;;;21.29;38.73;94327.59;10498746;28;2350;-68
2024/03/02 14:42:38;;;;;;;;;;;;;;;21.27;38.92;94325.25;10499356;28;2007;-66
2024/03/02 14:47:38;;;;;;;;;;;;;;;21.24;38.72;94330.38;10509015;28;2121;-66
2024/03/02 14:52:38;;;;;;;;;;;;;;;21.23;38.55;94313.78;10512275;28;2117;-67
2024/03/02 14:57:39;;;;;;;;;;;;;;;21.23;38.49;94326.19;10514508;28;2084;-67
2024/03/02 15:02:39;;;;;;;;;;;;;;;21.22;38.63;94316.75;10507862;28;2271;-67
2024/03/02 15:07:39;;;;;;;;;;;;;;;21.22;38.88;94322.00;10517909;28;1885;-68
2024/03/02 15:12:40;;;;;;;;;;;;;;;21.22;38.77;94316.75;10510894;28;1876;-68
2024/03/02 15:17:40;;;;;;;;;;;;;;;21.22;38.48;94309.63;10515487;28;2414;-68
2024/03/02 15:22:41;;;;;;;;;;;;;;;21.22;38.35;94301.72;10512498;28;1986;-68
2024/03/02 15:27:41;;;;;;;;;;;;;;;21.23;38.41;94292.69;10507130;28;2053;-67
2024/03/02 15:32:44;;;;;;;;;;;;;;;21.23;38.67;94297.19;10513934;28;2053;-71
2024/03/02 15:37:44;;;;;;;;;;;;;;;21.23;38.66;94291.91;10510263;28;1985;-74
2024/03/02 15:42:44;;;;;;;;;;;;;;;21.23;38.69;94291.91;10518083;28;2132;-71
2024/03/02 15:47:45;;;;;;;;;;;;;;;21.24;38.61;94298.75;10514463;28;1935;-73
2024/03/02 15:52:46;;;;;;;;;;;;;;;21.25;38.57;94298.44;10501517;28;2045;-68
2024/03/02 15:57:46;;;;;;;;;;;;;;;21.24;38.62;94288.22;10503197;28;1981;-67
2024/03/02 16:02:47;;;;;;;;;;;;;;;21.24;38.65;94291.63;10510206;28;1978;-67
2024/03/02 16:07:47;;;;;;;;;;;;;;;21.25;38.62;94290.53;10503777;28;1978;-67
2024/03/02 16:12:48;;;;;;;;;;;;;;;21.24;38.40;94288.22;10502613;28;2326;-67
2024/03/02 16:17:48;;;;;;;;;;;;;;;21.27;38.35;94279.69;10511388;28;1910;-67
2024/03/02 16:22:48;;;;;;;;;;;;;;;21.25;38.36;94284.47;10512103;28;2050;-68
2024/03/02 16:27:48;;;;;;;;;;;;;;;21.25;38.53;94284.47;10509527;28;1982;-67
2024/03/02 16:32:49;;;;;;;;;;;;;;;21.27;38.37;94282.31;10513833;28;2041;-66
2024/03/02 16:37:49;;;;;;;;;;;;;;;21.28;38.67;94278.59;10514614;28;2057;-68
2024/03/02 16:42:49;;;;;;;;;;;;;;;21.25;38.69;94273.94;10505470;28;2059;-70
2024/03/02 16:47:49;;;;;;;;;;;;;;;21.26;38.62;94278.13;10507510;28;2069;-70
2024/03/02 16:52:50;;;;;;;;;;;;;;;21.28;38.64;94284.66;10507268;28;2121;-73
2024/03/02 16:57:50;;;;;;;;;;;;;;;21.28;38.54;94289.13;10501640;28;2251;-67
2024/03/02 17:02:52;;;;;;;;;;;;;;;21.27;38.61;94288.34;10503943;28;1994;-67
2024/03/02 17:07:52;;;;;;;;;;;;;;;21.26;38.76;94286.03;10511581;28;2053;-68
2024/03/02 17:12:55;;;;;;;;;;;;;;;21.35;38.06;94290.19;10505936;28;2276;-69
2024/03/02 17:17:55;;;;;;;;;;;;;;;21.47;40.75;94297.47;10512171;28;1951;-66
2024/03/02 17:22:55;;;;;;;;;;;;;;;21.60;40.71;94293.88;10511563;28;2030;-69
2024/03/02 17:27:56;;;;;;;;;;;;;;;21.62;42.48;94297.75;10507080;28;2162;-73
2024/03/02 17:32:56;;;;;;;;;;;;;;;21.67;43.09;94302.09;10507263;28;2026;-70
2024/03/02 17:37:56;;;;;;;;;;;;;;;21.70;43.48;94296.19;10505695;28;2511;-70
2024/03/02 17:42:57;;;;;;;;;;;;;;;21.70;43.07;94301.47;10512021;28;2114;-69
2024/03/02 17:47:57;;;;;;;;;;;;;;;21.70;43.60;94296.19;10514836;28;1895;-69
2024/03/02 17:52:57;;;;;;;;;;;;;;;21.68;43.55;94290.44;10516924;28;1955;-69
2024/03/02 17:57:58;;;;;;;;;;;;;;;21.83;40.09;94282.03;10507783;28;2053;-68
2024/03/02 18:02:58;;;;;;;;;;;;;;;21.80;39.78;94290.56;10509079;28;2179;-68
2024/03/02 18:07:58;;;;;;;;;;;;;;;21.69;41.89;94290.13;10513903;28;2058;-68
2024/03/02 18:12:58;;;;;;;;;;;;;;;21.75;43.37;94285.44;10506473;28;1941;-67
2024/03/02 18:17:59;;;;;;;;;;;;;;;21.78;44.24;94293.50;10509876;28;1983;-68
2024/03/02 18:23:00;;;;;;;;;;;;;;;21.92;41.13;94288.06;10512617;28;2406;-75
2024/03/02 18:28:00;;;;;;;;;;;;;;;21.93;40.66;94286.22;10509984;28;2018;-69
2024/03/02 18:33:01;;;;;;;;;;;;;;;21.97;39.99;94279.97;10508086;28;2014;-69
2024/03/02 18:38:01;;;;;;;;;;;;;;;21.97;40.12;94268.66;10509956;28;1931;-71
2024/03/02 18:43:03;;;;;;;;;;;;;;;22.06;39.56;94272.78;10513104;28;1532;-74
2024/03/02 18:48:03;;;;;;;;;;;;;;;22.02;39.23;94271.09;10518118;28;1501;-74
2024/03/02 18:53:04;;;;;;;;;;;;;;;22.00;39.19;94275.91;10525045;28;1716;-74
2024/03/02 18:58:04;;;;;;;;;;;;;;;22.02;39.20;94271.88;10524966;28;1906;-75
2024/03/02 19:03:04;;;;;;;;;;;;;;;21.98;39.29;94273.59;10522746;28;1473;-73
2024/03/02 19:08:05;;;;;;;;;;;;;;;21.98;39.41;94262.28;10521269;28;2612;-71
2024/03/02 19:13:05;;;;;;;;;;;;;;;21.98;39.23;94270.19;10522470;28;1503;-69
2024/03/02 19:18:05;;;;;;;;;;;;;;;21.96;39.20;94270.50;10522113;28;1909;-73
2024/03/02 19:23:07;;;;;;;;;;;;;;;22.00;39.05;94265.38;10526253;28;1865;-74
2024/03/02 19:28:07;;;;;;;;;;;;;;;21.96;39.43;94272.38;10521029;28;1520;-73
2024/03/02 19:33:08;;;;;;;;;;;;;;;21.95;39.32;94270.84;10526846;28;1418;-73
2024/03/02 19:38:08;;;;;;;;;;;;;;;22.02;38.98;94265.81;10523060;28;1978;-72
2024/03/02 19:43:08;;;;;;;;;;;;;;;21.99;39.21;94250.66;10522057;28;1505;-72
2024/03/02 19:48:09;;;;;;;;;;;;;;;21.96;39.29;94249.41;10526933;28;1754;-70
2024/03/02 19:53:09;;;;;;;;;;;;;;;21.94;39.34;94243.69;10521376;28;2422;-73
2024/03/02 19:58:10;;;;;;;;;;;;;;;21.99;38.79;94240.09;10520685;28;1914;-72
2024/03/02 20:03:11;;;;;;;;;;;;;;;21.92;39.07;94237.16;10515687;28;1471;-75
2024/03/02 20:08:11;;;;;;;;;;;;;;;21.97;39.21;94231.72;10521398;28;1556;-72
2024/03/02 20:13:11;;;;;;;;;;;;;;;21.96;39.72;94230.16;10519303;28;1418;-74
2024/03/02 20:18:12;;;;;;;;;;;;;;;21.93;38.97;94228.16;10519070;28;1917;-74
2024/03/02 20:23:12;;;;;;;;;;;;;;;21.93;39.24;94215.72;10508819;28;1790;-73
2024/03/02 20:28:13;;;;;;;;;;;;;;;21.97;39.04;94221.91;10518212;27;2018;-73
2024/03/02 20:33:13;;;;;;;;;;;;;;;21.98;38.84;94218.19;10507551;28;1996;-74
2024/03/02 20:38:13;;;;;;;;;;;;;;;21.96;38.80;94216.97;10510511;28;2081;-70
2024/03/02 20:43:14;;;;;;;;;;;;;;;21.99;38.33;94211.81;10515919;28;1971;-70
2024/03/02 20:48:14;;;;;;;;;;;;;;;21.99;38.69;94203.16;10510565;28;2409;-67
2024/03/02 20:53:15;;;;;;;;;;;;;;;21.96;38.92;94199.28;10507917;28;1961;-70
2024/03/02 20:58:15;;;;;;;;;;;;;;;21.92;38.63;94192.31;10509500;28;1955;-69
2024/03/02 21:03:15;;;;;;;;;;;;;;;21.84;38.23;94181.47;10508875;28;1884;-72
2024/03/02 21:08:16;;;;;;;;;;;;;;;21.78;38.13;94187.25;10509499;28;2382;-69
2024/03/02 21:13:16;;;;;;;;;;;;;;;21.69;39.10;94171.47;10513016;28;2029;-69
2024/03/02 21:18:18;;;;;;;;;;;;;;;21.64;38.39;94173.47;10522454;28;2025;-68
2024/03/02 21:23:19;;;;;;;;;;;;;;;21.57;38.12;94175.84;10520381;28;2061;-69
2024/03/02 21:28:19;;;;;;;;;;;;;;;21.51;38.62;94177.91;10521164;28;2018;-69
2024/03/02 21:33:19;;;;;;;;;;;;;;;21.44;38.71;94171.56;10521557;28;2616;-69
2024/03/02 21:38:20;;;;;;;;;;;;;;;21.39;38.19;94158.56;10518616;28;2001;-70
2024/03/02 21:43:20;;;;;;;;;;;;;;;21.33;38.68;94159.84;10520158;28;1941;-69
2024/03/02 21:48:22;;;;;;;;;;;;;;;21.27;39.10;94155.81;10518783;28;1934;-70
2024/03/02 21:53:22;;;;;;;;;;;;;;;21.20;38.93;94145.00;10516509;28;2089;-69
2024/03/02 21:58:22;;;;;;;;;;;;;;;21.16;39.12;94139.59;10518513;28;1959;-70
2024/03/02 22:03:22;;;;;;;;;;;;;;;21.12;39.17;94143.16;10520124;28;2070;-69
2024/03/02 22:08:23;;;;;;;;;;;;;;;21.09;38.62;94136.66;10513345;28;2212;-70
2024/03/02 22:13:23;;;;;;;;;;;;;;;21.05;39.50;94141.00;10513728;28;2082;-69
2024/03/02 22:18:23;;;;;;;;;;;;;;;21.01;38.86;94126.88;10511594;28;2096;-69
2024/03/02 22:23:23;;;;;;;;;;;;;;;20.97;39.63;94132.03;10517568;28;2646;-69
2024/03/02 22:28:24;;;;;;;;;;;;;;;20.94;39.69;94134.47;10518685;28;1919;-68
2024/03/02 22:33:24;;;;;;;;;;;;;;;20.92;39.25;94134.81;10514464;28;1989;-70
2024/03/02 22:38:24;;;;;;;;;;;;;;;20.91;39.43;94133.28;10515887;28;2017;-70
2024/03/02 22:43:25;;;;;;;;;;;;;;;20.89;40.21;94137.31;10515593;28;1997;-70
2024/03/02 22:48:25;;;;;;;;;;;;;;;20.88;40.16;94130.47;10519157;28;2069;-69
2024/03/02 22:53:25;;;;;;;;;;;;;;;20.84;39.62;94143.50;10522959;28;2070;-69
2024/03/02 22:58:25;;;;;;;;;;;;;;;20.81;39.24;94138.84;10516325;28;2329;-69
2024/03/02 23:03:26;;;;;;;;;;;;;;;20.79;40.16;94141.03;10513154;28;1922;-70
2024/03/02 23:08:26;;;;;;;;;;;;;;;20.78;40.09;94139.50;10514389;28;2890;-69
2024/03/02 23:13:26;;;;;;;;;;;;;;;20.77;39.41;94147.72;10515050;28;2109;-70
2024/03/02 23:18:27;;;;;;;;;;;;;;;20.74;40.36;94148.31;10517565;28;2029;-70
2024/03/02 23:23:27;;;;;;;;;;;;;;;20.73;40.29;94146.78;10511915;28;1974;-70
2024/03/02 23:28:27;;;;;;;;;;;;;;;20.71;40.49;94135.81;10505804;28;2055;-69
2024/03/02 23:33:30;;;;;;;;;;;;;;;20.68;40.06;94131.94;10510446;28;1882;-71
2024/03/02 23:38:30;;;;;;;;;;;;;;;20.66;40.04;94131.47;10509985;28;2089;-70
2024/03/02 23:43:30;;;;;;;;;;;;;;;20.64;40.14;94125.75;10506120;28;2095;-70
2024/03/02 23:48:31;;;;;;;;;;;;;;;20.62;40.53;94120.00;10518671;28;2037;-70
2024/03/02 23:53:31;;;;;;;;;;;;;;;20.60;40.39;94126.66;10513315;28;2837;-70
2024/03/02 23:58:31;;;;;;;;;;;;;;;20.58;40.28;94119.09;10510464;28;2109;-70
